sensor_id;sensor_type;location;lat;lon;timestamp;P1;durP1;ratioP1;P2;durP2;ratioP2
24617;SDS011;12762;51.730;5.356;2024-03-08T00:00:21;35.30;;;15.70;;
24617;SDS011;12762;51.730;5.356;2024-03-08T00:02:50;32.97;;;15.47;;
24617;SDS011;12762;51.730;5.356;2024-03-08T00:05:17;39.53;;;16.27;;
24617;SDS011;12762;51.730;5.356;2024-03-08T00:07:47;37.07;;;16.73;;
24617;SDS011;12762;51.730;5.356;2024-03-08T00:10:14;34.30;;;17.03;;
24617;SDS011;12762;51.730;5.356;2024-03-08T00:12:43;36.70;;;18.07;;
24617;SDS011;12762;51.730;5.356;2024-03-08T00:15:12;31.97;;;15.40;;
24617;SDS011;12762;51.730;5.356;2024-03-08T00:17:45;29.87;;;14.53;;
24617;SDS011;12762;51.730;5.356;2024-03-08T00:20:13;34.97;;;15.87;;
24617;SDS011;12762;51.730;5.356;2024-03-08T00:22:41;31.80;;;14.73;;
24617;SDS011;12762;51.730;5.356;2024-03-08T00:25:08;34.07;;;15.40;;
24617;SDS011;12762;51.730;5.356;2024-03-08T00:27:36;30.97;;;14.27;;
24617;SDS011;12762;51.730;5.356;2024-03-08T00:30:04;34.80;;;17.47;;
24617;SDS011;12762;51.730;5.356;2024-03-08T00:32:32;34.13;;;17.30;;
24617;SDS011;12762;51.730;5.356;2024-03-08T00:34:59;34.40;;;17.07;;
24617;SDS011;12762;51.730;5.356;2024-03-08T00:37:25;35.50;;;17.33;;
24617;SDS011;12762;51.730;5.356;2024-03-08T00:39:52;35.43;;;17.60;;
24617;SDS011;12762;51.730;5.356;2024-03-08T00:42:20;34.30;;;17.80;;
24617;SDS011;12762;51.730;5.356;2024-03-08T00:44:47;32.17;;;17.67;;
24617;SDS011;12762;51.730;5.356;2024-03-08T00:47:18;35.10;;;17.07;;
24617;SDS011;12762;51.730;5.356;2024-03-08T00:49:45;33.63;;;18.37;;
24617;SDS011;12762;51.730;5.356;2024-03-08T00:52:13;38.23;;;18.23;;
24617;SDS011;12762;51.730;5.356;2024-03-08T00:54:40;32.40;;;17.50;;
24617;SDS011;12762;51.730;5.356;2024-03-08T00:57:11;33.70;;;17.57;;
24617;SDS011;12762;51.730;5.356;2024-03-08T00:59:38;31.97;;;17.83;;
24617;SDS011;12762;51.730;5.356;2024-03-08T01:02:05;32.83;;;17.40;;
24617;SDS011;12762;51.730;5.356;2024-03-08T01:04:32;33.33;;;17.27;;
24617;SDS011;12762;51.730;5.356;2024-03-08T01:07:02;34.23;;;17.73;;
24617;SDS011;12762;51.730;5.356;2024-03-08T01:09:29;30.97;;;16.47;;
24617;SDS011;12762;51.730;5.356;2024-03-08T01:11:57;30.30;;;16.77;;
24617;SDS011;12762;51.730;5.356;2024-03-08T01:14:27;33.70;;;17.63;;
24617;SDS011;12762;51.730;5.356;2024-03-08T01:16:57;33.83;;;18.07;;
24617;SDS011;12762;51.730;5.356;2024-03-08T01:19:28;32.97;;;16.13;;
24617;SDS011;12762;51.730;5.356;2024-03-08T01:21:55;33.20;;;17.60;;
24617;SDS011;12762;51.730;5.356;2024-03-08T01:24:32;34.67;;;16.90;;
24617;SDS011;12762;51.730;5.356;2024-03-08T01:26:58;30.30;;;16.53;;
24617;SDS011;12762;51.730;5.356;2024-03-08T01:29:26;30.83;;;14.33;;
24617;SDS011;12762;51.730;5.356;2024-03-08T01:31:52;27.27;;;14.10;;
24617;SDS011;12762;51.730;5.356;2024-03-08T01:34:19;31.00;;;13.13;;
24617;SDS011;12762;51.730;5.356;2024-03-08T01:36:46;28.00;;;14.13;;
24617;SDS011;12762;51.730;5.356;2024-03-08T01:39:13;33.47;;;13.70;;
24617;SDS011;12762;51.730;5.356;2024-03-08T01:41:40;28.27;;;16.47;;
24617;SDS011;12762;51.730;5.356;2024-03-08T01:44:07;32.27;;;17.10;;
24617;SDS011;12762;51.730;5.356;2024-03-08T01:46:34;30.80;;;15.13;;
24617;SDS011;12762;51.730;5.356;2024-03-08T01:49:01;31.87;;;13.90;;
24617;SDS011;12762;51.730;5.356;2024-03-08T01:51:29;32.13;;;15.53;;
24617;SDS011;12762;51.730;5.356;2024-03-08T01:53:57;28.43;;;14.43;;
24617;SDS011;12762;51.730;5.356;2024-03-08T01:56:26;28.13;;;14.40;;
24617;SDS011;12762;51.730;5.356;2024-03-08T01:58:52;32.53;;;18.50;;
24617;SDS011;12762;51.730;5.356;2024-03-08T02:01:21;33.87;;;17.10;;
24617;SDS011;12762;51.730;5.356;2024-03-08T02:03:48;34.23;;;18.23;;
24617;SDS011;12762;51.730;5.356;2024-03-08T02:06:16;32.90;;;17.20;;
24617;SDS011;12762;51.730;5.356;2024-03-08T02:08:43;33.47;;;17.77;;
24617;SDS011;12762;51.730;5.356;2024-03-08T02:11:11;31.57;;;16.20;;
24617;SDS011;12762;51.730;5.356;2024-03-08T02:13:38;30.13;;;17.37;;
24617;SDS011;12762;51.730;5.356;2024-03-08T02:16:05;30.90;;;17.70;;
24617;SDS011;12762;51.730;5.356;2024-03-08T02:18:34;33.10;;;17.73;;
24617;SDS011;12762;51.730;5.356;2024-03-08T02:21:02;33.53;;;18.30;;
24617;SDS011;12762;51.730;5.356;2024-03-08T02:23:30;31.57;;;17.53;;
24617;SDS011;12762;51.730;5.356;2024-03-08T02:25:59;32.67;;;17.63;;
24617;SDS011;12762;51.730;5.356;2024-03-08T02:28:26;32.07;;;15.23;;
24617;SDS011;12762;51.730;5.356;2024-03-08T02:30:54;28.23;;;14.20;;
24617;SDS011;12762;51.730;5.356;2024-03-08T02:33:22;29.53;;;13.73;;
24617;SDS011;12762;51.730;5.356;2024-03-08T02:35:50;30.87;;;14.97;;
24617;SDS011;12762;51.730;5.356;2024-03-08T02:38:17;32.70;;;15.80;;
24617;SDS011;12762;51.730;5.356;2024-03-08T02:40:46;29.70;;;17.67;;
24617;SDS011;12762;51.730;5.356;2024-03-08T02:43:14;31.87;;;17.93;;
24617;SDS011;12762;51.730;5.356;2024-03-08T02:45:41;31.83;;;17.07;;
24617;SDS011;12762;51.730;5.356;2024-03-08T02:48:08;31.27;;;18.13;;
24617;SDS011;12762;51.730;5.356;2024-03-08T02:50:35;33.30;;;19.33;;
24617;SDS011;12762;51.730;5.356;2024-03-08T02:53:03;34.37;;;18.03;;
24617;SDS011;12762;51.730;5.356;2024-03-08T02:55:30;35.77;;;19.47;;
24617;SDS011;12762;51.730;5.356;2024-03-08T02:57:57;32.10;;;18.33;;
24617;SDS011;12762;51.730;5.356;2024-03-08T03:00:23;32.73;;;17.90;;
24617;SDS011;12762;51.730;5.356;2024-03-08T03:02:50;35.50;;;18.80;;
24617;SDS011;12762;51.730;5.356;2024-03-08T03:05:20;33.33;;;19.13;;
24617;SDS011;12762;51.730;5.356;2024-03-08T03:07:47;34.50;;;19.30;;
24617;SDS011;12762;51.730;5.356;2024-03-08T03:10:16;33.90;;;19.53;;
24617;SDS011;12762;51.730;5.356;2024-03-08T03:12:43;35.67;;;19.37;;
24617;SDS011;12762;51.730;5.356;2024-03-08T03:15:12;35.97;;;18.77;;
24617;SDS011;12762;51.730;5.356;2024-03-08T03:17:40;36.37;;;19.53;;
24617;SDS011;12762;51.730;5.356;2024-03-08T03:20:07;35.13;;;18.90;;
24617;SDS011;12762;51.730;5.356;2024-03-08T03:22:40;34.90;;;18.63;;
24617;SDS011;12762;51.730;5.356;2024-03-08T03:25:08;37.97;;;20.20;;
24617;SDS011;12762;51.730;5.356;2024-03-08T03:27:38;34.57;;;19.50;;
24617;SDS011;12762;51.730;5.356;2024-03-08T03:30:06;34.60;;;19.83;;
24617;SDS011;12762;51.730;5.356;2024-03-08T03:32:50;35.43;;;20.03;;
24617;SDS011;12762;51.730;5.356;2024-03-08T03:35:18;34.97;;;19.53;;
24617;SDS011;12762;51.730;5.356;2024-03-08T03:37:47;33.57;;;19.77;;
24617;SDS011;12762;51.730;5.356;2024-03-08T03:40:38;37.00;;;19.67;;
24617;SDS011;12762;51.730;5.356;2024-03-08T03:43:07;34.20;;;21.00;;
24617;SDS011;12762;51.730;5.356;2024-03-08T03:45:36;36.87;;;20.83;;
24617;SDS011;12762;51.730;5.356;2024-03-08T03:48:06;35.77;;;20.53;;
24617;SDS011;12762;51.730;5.356;2024-03-08T03:50:36;39.47;;;20.97;;
24617;SDS011;12762;51.730;5.356;2024-03-08T03:53:04;36.30;;;21.17;;
24617;SDS011;12762;51.730;5.356;2024-03-08T03:55:34;34.50;;;20.63;;
24617;SDS011;12762;51.730;5.356;2024-03-08T03:58:03;36.40;;;21.30;;
24617;SDS011;12762;51.730;5.356;2024-03-08T04:00:30;37.57;;;21.13;;
24617;SDS011;12762;51.730;5.356;2024-03-08T04:02:57;37.13;;;21.50;;
24617;SDS011;12762;51.730;5.356;2024-03-08T04:05:26;36.50;;;20.60;;
24617;SDS011;12762;51.730;5.356;2024-03-08T04:07:53;35.40;;;20.03;;
24617;SDS011;12762;51.730;5.356;2024-03-08T04:10:20;38.67;;;19.87;;
24617;SDS011;12762;51.730;5.356;2024-03-08T04:12:47;40.57;;;21.13;;
24617;SDS011;12762;51.730;5.356;2024-03-08T04:15:14;40.90;;;21.63;;
24617;SDS011;12762;51.730;5.356;2024-03-08T04:17:41;35.70;;;20.37;;
24617;SDS011;12762;51.730;5.356;2024-03-08T04:20:08;36.27;;;20.80;;
24617;SDS011;12762;51.730;5.356;2024-03-08T04:22:41;36.03;;;20.83;;
24617;SDS011;12762;51.730;5.356;2024-03-08T04:25:10;41.50;;;21.10;;
24617;SDS011;12762;51.730;5.356;2024-03-08T04:27:37;36.33;;;21.67;;
24617;SDS011;12762;51.730;5.356;2024-03-08T04:30:04;39.60;;;22.27;;
24617;SDS011;12762;51.730;5.356;2024-03-08T04:32:34;39.57;;;21.40;;
24617;SDS011;12762;51.730;5.356;2024-03-08T04:35:01;39.00;;;21.23;;
24617;SDS011;12762;51.730;5.356;2024-03-08T04:37:29;37.27;;;22.13;;
24617;SDS011;12762;51.730;5.356;2024-03-08T04:39:56;37.93;;;21.90;;
24617;SDS011;12762;51.730;5.356;2024-03-08T04:42:24;39.43;;;23.03;;
24617;SDS011;12762;51.730;5.356;2024-03-08T04:44:51;36.50;;;20.63;;
24617;SDS011;12762;51.730;5.356;2024-03-08T04:47:19;40.67;;;22.33;;
24617;SDS011;12762;51.730;5.356;2024-03-08T04:49:46;40.47;;;22.47;;
24617;SDS011;12762;51.730;5.356;2024-03-08T04:52:13;39.80;;;21.27;;
24617;SDS011;12762;51.730;5.356;2024-03-08T04:54:40;38.93;;;21.80;;
24617;SDS011;12762;51.730;5.356;2024-03-08T04:57:07;41.37;;;22.30;;
24617;SDS011;12762;51.730;5.356;2024-03-08T04:59:35;38.43;;;21.57;;
24617;SDS011;12762;51.730;5.356;2024-03-08T05:02:02;41.00;;;22.60;;
24617;SDS011;12762;51.730;5.356;2024-03-08T05:04:30;36.90;;;21.47;;
24617;SDS011;12762;51.730;5.356;2024-03-08T05:06:56;40.13;;;22.67;;
24617;SDS011;12762;51.730;5.356;2024-03-08T05:09:23;42.23;;;21.63;;
24617;SDS011;12762;51.730;5.356;2024-03-08T05:11:50;46.43;;;23.00;;
24617;SDS011;12762;51.730;5.356;2024-03-08T05:14:17;38.77;;;21.63;;
24617;SDS011;12762;51.730;5.356;2024-03-08T05:16:46;37.83;;;21.23;;
24617;SDS011;12762;51.730;5.356;2024-03-08T05:19:17;36.43;;;20.57;;
24617;SDS011;12762;51.730;5.356;2024-03-08T05:21:45;38.73;;;22.10;;
24617;SDS011;12762;51.730;5.356;2024-03-08T05:24:16;38.37;;;21.83;;
24617;SDS011;12762;51.730;5.356;2024-03-08T05:26:44;38.80;;;22.67;;
24617;SDS011;12762;51.730;5.356;2024-03-08T05:29:15;39.23;;;21.47;;
24617;SDS011;12762;51.730;5.356;2024-03-08T05:34:12;40.60;;;21.90;;
24617;SDS011;12762;51.730;5.356;2024-03-08T05:36:41;41.47;;;22.07;;
24617;SDS011;12762;51.730;5.356;2024-03-08T05:39:20;38.83;;;21.17;;
24617;SDS011;12762;51.730;5.356;2024-03-08T05:41:47;44.50;;;22.30;;
24617;SDS011;12762;51.730;5.356;2024-03-08T05:44:14;39.60;;;22.73;;
24617;SDS011;12762;51.730;5.356;2024-03-08T05:46:43;40.70;;;22.23;;
24617;SDS011;12762;51.730;5.356;2024-03-08T05:49:14;42.57;;;22.57;;
24617;SDS011;12762;51.730;5.356;2024-03-08T05:51:43;42.03;;;22.33;;
24617;SDS011;12762;51.730;5.356;2024-03-08T05:54:12;40.60;;;22.03;;
24617;SDS011;12762;51.730;5.356;2024-03-08T05:56:43;40.00;;;21.90;;
24617;SDS011;12762;51.730;5.356;2024-03-08T05:59:11;39.97;;;21.77;;
24617;SDS011;12762;51.730;5.356;2024-03-08T06:01:39;40.27;;;21.90;;
24617;SDS011;12762;51.730;5.356;2024-03-08T06:04:08;44.30;;;22.87;;
24617;SDS011;12762;51.730;5.356;2024-03-08T06:06:38;43.37;;;22.57;;
24617;SDS011;12762;51.730;5.356;2024-03-08T06:09:06;39.47;;;21.93;;
24617;SDS011;12762;51.730;5.356;2024-03-08T06:11:38;44.27;;;22.23;;
24617;SDS011;12762;51.730;5.356;2024-03-08T06:14:06;39.43;;;21.70;;
24617;SDS011;12762;51.730;5.356;2024-03-08T06:16:33;41.33;;;22.37;;
24617;SDS011;12762;51.730;5.356;2024-03-08T06:19:00;37.97;;;21.17;;
24617;SDS011;12762;51.730;5.356;2024-03-08T06:21:28;39.93;;;21.63;;
24617;SDS011;12762;51.730;5.356;2024-03-08T06:23:55;39.80;;;21.57;;
24617;SDS011;12762;51.730;5.356;2024-03-08T06:26:25;38.80;;;20.93;;
24617;SDS011;12762;51.730;5.356;2024-03-08T06:28:56;44.03;;;22.40;;
24617;SDS011;12762;51.730;5.356;2024-03-08T06:31:26;41.73;;;22.67;;
24617;SDS011;12762;51.730;5.356;2024-03-08T06:33:53;39.00;;;20.67;;
24617;SDS011;12762;51.730;5.356;2024-03-08T06:36:23;41.20;;;21.27;;
24617;SDS011;12762;51.730;5.356;2024-03-08T06:38:51;43.93;;;22.70;;
24617;SDS011;12762;51.730;5.356;2024-03-08T06:41:18;40.70;;;21.87;;
24617;SDS011;12762;51.730;5.356;2024-03-08T06:43:45;41.83;;;22.77;;
24617;SDS011;12762;51.730;5.356;2024-03-08T06:46:17;43.80;;;22.67;;
24617;SDS011;12762;51.730;5.356;2024-03-08T06:48:44;41.40;;;22.03;;
24617;SDS011;12762;51.730;5.356;2024-03-08T06:51:16;38.80;;;21.03;;
24617;SDS011;12762;51.730;5.356;2024-03-08T06:53:43;40.77;;;21.57;;
24617;SDS011;12762;51.730;5.356;2024-03-08T06:56:10;41.50;;;22.33;;
24617;SDS011;12762;51.730;5.356;2024-03-08T06:58:37;38.17;;;18.80;;
24617;SDS011;12762;51.730;5.356;2024-03-08T07:01:04;37.00;;;19.20;;
24617;SDS011;12762;51.730;5.356;2024-03-08T07:03:34;37.70;;;18.40;;
24617;SDS011;12762;51.730;5.356;2024-03-08T07:06:01;35.33;;;18.13;;
24617;SDS011;12762;51.730;5.356;2024-03-08T07:08:29;38.80;;;19.97;;
24617;SDS011;12762;51.730;5.356;2024-03-08T07:10:56;38.03;;;19.47;;
24617;SDS011;12762;51.730;5.356;2024-03-08T07:13:24;36.63;;;17.57;;
24617;SDS011;12762;51.730;5.356;2024-03-08T07:15:51;40.37;;;18.23;;
24617;SDS011;12762;51.730;5.356;2024-03-08T07:18:18;38.20;;;19.10;;
24617;SDS011;12762;51.730;5.356;2024-03-08T07:20:45;39.93;;;19.23;;
24617;SDS011;12762;51.730;5.356;2024-03-08T07:23:12;36.83;;;17.83;;
24617;SDS011;12762;51.730;5.356;2024-03-08T07:25:59;39.57;;;17.87;;
24617;SDS011;12762;51.730;5.356;2024-03-08T07:28:27;36.57;;;18.77;;
24617;SDS011;12762;51.730;5.356;2024-03-08T07:30:57;34.83;;;17.93;;
24617;SDS011;12762;51.730;5.356;2024-03-08T07:33:43;37.57;;;18.93;;
24617;SDS011;12762;51.730;5.356;2024-03-08T07:36:10;36.90;;;17.83;;
24617;SDS011;12762;51.730;5.356;2024-03-08T07:38:38;40.67;;;18.60;;
24617;SDS011;12762;51.730;5.356;2024-03-08T07:41:05;39.03;;;18.13;;
24617;SDS011;12762;51.730;5.356;2024-03-08T07:43:31;37.80;;;19.37;;
24617;SDS011;12762;51.730;5.356;2024-03-08T07:45:59;39.83;;;19.43;;
24617;SDS011;12762;51.730;5.356;2024-03-08T07:48:29;33.07;;;17.30;;
24617;SDS011;12762;51.730;5.356;2024-03-08T07:50:57;35.53;;;17.97;;
24617;SDS011;12762;51.730;5.356;2024-03-08T07:53:24;37.30;;;18.50;;
24617;SDS011;12762;51.730;5.356;2024-03-08T07:55:51;37.93;;;19.30;;
24617;SDS011;12762;51.730;5.356;2024-03-08T07:58:18;33.50;;;17.47;;
24617;SDS011;12762;51.730;5.356;2024-03-08T08:00:48;39.40;;;19.83;;
24617;SDS011;12762;51.730;5.356;2024-03-08T08:03:17;39.33;;;19.47;;
24617;SDS011;12762;51.730;5.356;2024-03-08T08:05:47;35.90;;;18.57;;
24617;SDS011;12762;51.730;5.356;2024-03-08T08:08:18;39.80;;;18.77;;
24617;SDS011;12762;51.730;5.356;2024-03-08T08:10:45;37.03;;;18.47;;
24617;SDS011;12762;51.730;5.356;2024-03-08T08:13:12;39.10;;;18.70;;
24617;SDS011;12762;51.730;5.356;2024-03-08T08:15:39;44.93;;;20.63;;
24617;SDS011;12762;51.730;5.356;2024-03-08T08:18:08;43.33;;;21.93;;
24617;SDS011;12762;51.730;5.356;2024-03-08T08:20:36;42.70;;;20.93;;
24617;SDS011;12762;51.730;5.356;2024-03-08T08:23:03;40.63;;;21.07;;
24617;SDS011;12762;51.730;5.356;2024-03-08T08:25:30;41.03;;;20.47;;
24617;SDS011;12762;51.730;5.356;2024-03-08T08:27:57;38.30;;;19.83;;
24617;SDS011;12762;51.730;5.356;2024-03-08T08:30:26;36.17;;;19.77;;
24617;SDS011;12762;51.730;5.356;2024-03-08T08:32:53;33.13;;;19.63;;
24617;SDS011;12762;51.730;5.356;2024-03-08T08:35:21;36.33;;;19.67;;
24617;SDS011;12762;51.730;5.356;2024-03-08T08:37:48;32.37;;;19.17;;
24617;SDS011;12762;51.730;5.356;2024-03-08T08:40:15;33.07;;;18.83;;
24617;SDS011;12762;51.730;5.356;2024-03-08T08:42:44;33.03;;;19.23;;
24617;SDS011;12762;51.730;5.356;2024-03-08T08:45:15;30.50;;;17.93;;
24617;SDS011;12762;51.730;5.356;2024-03-08T08:47:52;31.77;;;18.93;;
24617;SDS011;12762;51.730;5.356;2024-03-08T08:50:19;32.10;;;17.43;;
24617;SDS011;12762;51.730;5.356;2024-03-08T08:52:49;32.97;;;17.67;;
24617;SDS011;12762;51.730;5.356;2024-03-08T08:55:19;29.03;;;16.23;;
24617;SDS011;12762;51.730;5.356;2024-03-08T08:57:52;28.97;;;16.43;;
24617;SDS011;12762;51.730;5.356;2024-03-08T09:00:20;26.93;;;15.30;;
24617;SDS011;12762;51.730;5.356;2024-03-08T09:02:48;26.50;;;16.00;;
24617;SDS011;12762;51.730;5.356;2024-03-08T09:05:15;30.67;;;16.63;;
24617;SDS011;12762;51.730;5.356;2024-03-08T09:07:43;31.03;;;16.93;;
24617;SDS011;12762;51.730;5.356;2024-03-08T09:10:13;28.50;;;16.43;;
24617;SDS011;12762;51.730;5.356;2024-03-08T09:12:43;28.47;;;17.37;;
24617;SDS011;12762;51.730;5.356;2024-03-08T09:15:10;26.50;;;16.27;;
24617;SDS011;12762;51.730;5.356;2024-03-08T09:17:38;32.37;;;17.57;;
24617;SDS011;12762;51.730;5.356;2024-03-08T09:20:14;30.23;;;17.30;;
24617;SDS011;12762;51.730;5.356;2024-03-08T09:22:45;30.27;;;17.03;;
24617;SDS011;12762;51.730;5.356;2024-03-08T09:25:15;27.97;;;17.20;;
24617;SDS011;12762;51.730;5.356;2024-03-08T09:27:42;27.97;;;16.93;;
24617;SDS011;12762;51.730;5.356;2024-03-08T09:30:09;28.80;;;16.80;;
24617;SDS011;12762;51.730;5.356;2024-03-08T09:32:39;29.70;;;16.40;;
24617;SDS011;12762;51.730;5.356;2024-03-08T09:35:06;28.53;;;16.93;;
24617;SDS011;12762;51.730;5.356;2024-03-08T09:37:34;30.03;;;17.50;;
24617;SDS011;12762;51.730;5.356;2024-03-08T09:40:02;27.40;;;16.47;;
24617;SDS011;12762;51.730;5.356;2024-03-08T09:42:37;26.00;;;15.97;;
24617;SDS011;12762;51.730;5.356;2024-03-08T09:45:08;24.87;;;15.60;;
24617;SDS011;12762;51.730;5.356;2024-03-08T09:47:42;30.73;;;16.30;;
24617;SDS011;12762;51.730;5.356;2024-03-08T09:50:10;26.67;;;16.10;;
24617;SDS011;12762;51.730;5.356;2024-03-08T09:52:39;26.57;;;16.93;;
24617;SDS011;12762;51.730;5.356;2024-03-08T09:55:06;25.63;;;16.60;;
24617;SDS011;12762;51.730;5.356;2024-03-08T09:57:33;25.43;;;15.90;;
24617;SDS011;12762;51.730;5.356;2024-03-08T10:00:03;26.10;;;16.00;;
24617;SDS011;12762;51.730;5.356;2024-03-08T10:02:45;25.30;;;15.50;;
24617;SDS011;12762;51.730;5.356;2024-03-08T10:05:12;29.80;;;15.57;;
24617;SDS011;12762;51.730;5.356;2024-03-08T10:07:40;26.23;;;15.67;;
24617;SDS011;12762;51.730;5.356;2024-03-08T10:10:07;26.70;;;16.37;;
24617;SDS011;12762;51.730;5.356;2024-03-08T10:12:34;26.67;;;15.27;;
24617;SDS011;12762;51.730;5.356;2024-03-08T10:15:05;23.43;;;14.47;;
24617;SDS011;12762;51.730;5.356;2024-03-08T10:17:34;25.20;;;14.70;;
24617;SDS011;12762;51.730;5.356;2024-03-08T10:20:01;26.83;;;14.90;;
24617;SDS011;12762;51.730;5.356;2024-03-08T10:22:31;22.07;;;14.27;;
24617;SDS011;12762;51.730;5.356;2024-03-08T10:24:58;25.17;;;14.60;;
24617;SDS011;12762;51.730;5.356;2024-03-08T10:27:26;22.00;;;14.27;;
24617;SDS011;12762;51.730;5.356;2024-03-08T10:29:53;24.67;;;14.57;;
24617;SDS011;12762;51.730;5.356;2024-03-08T10:32:20;23.13;;;13.97;;
24617;SDS011;12762;51.730;5.356;2024-03-08T10:34:47;24.47;;;15.10;;
24617;SDS011;12762;51.730;5.356;2024-03-08T10:37:21;22.60;;;14.57;;
24617;SDS011;12762;51.730;5.356;2024-03-08T10:40:03;23.47;;;14.50;;
24617;SDS011;12762;51.730;5.356;2024-03-08T10:42:47;20.93;;;13.53;;
24617;SDS011;12762;51.730;5.356;2024-03-08T10:45:21;22.43;;;13.47;;
24617;SDS011;12762;51.730;5.356;2024-03-08T10:47:50;19.77;;;13.03;;
24617;SDS011;12762;51.730;5.356;2024-03-08T10:50:41;24.17;;;13.73;;
24617;SDS011;12762;51.730;5.356;2024-03-08T10:53:15;22.07;;;12.77;;
24617;SDS011;12762;51.730;5.356;2024-03-08T10:55:43;20.80;;;13.50;;
24617;SDS011;12762;51.730;5.356;2024-03-08T10:58:11;24.40;;;12.63;;
24617;SDS011;12762;51.730;5.356;2024-03-08T11:00:37;21.03;;;13.23;;
24617;SDS011;12762;51.730;5.356;2024-03-08T11:03:05;23.37;;;13.60;;
24617;SDS011;12762;51.730;5.356;2024-03-08T11:05:32;22.80;;;13.17;;
24617;SDS011;12762;51.730;5.356;2024-03-08T11:08:19;21.87;;;13.20;;
24617;SDS011;12762;51.730;5.356;2024-03-08T11:10:53;20.67;;;13.33;;
24617;SDS011;12762;51.730;5.356;2024-03-08T11:13:38;24.33;;;13.63;;
24617;SDS011;12762;51.730;5.356;2024-03-08T11:16:14;23.30;;;13.43;;
24617;SDS011;12762;51.730;5.356;2024-03-08T11:19:00;20.57;;;12.93;;
24617;SDS011;12762;51.730;5.356;2024-03-08T11:21:33;26.03;;;12.70;;
24617;SDS011;12762;51.730;5.356;2024-03-08T11:24:06;21.07;;;12.43;;
24617;SDS011;12762;51.730;5.356;2024-03-08T11:26:34;23.87;;;13.33;;
24617;SDS011;12762;51.730;5.356;2024-03-08T11:32:15;22.43;;;13.10;;
24617;SDS011;12762;51.730;5.356;2024-03-08T11:34:45;21.30;;;12.37;;
24617;SDS011;12762;51.730;5.356;2024-03-08T11:37:14;21.13;;;12.93;;
24617;SDS011;12762;51.730;5.356;2024-03-08T11:39:48;22.93;;;13.27;;
24617;SDS011;12762;51.730;5.356;2024-03-08T11:42:19;21.20;;;12.93;;
24617;SDS011;12762;51.730;5.356;2024-03-08T11:44:46;23.70;;;14.07;;
24617;SDS011;12762;51.730;5.356;2024-03-08T11:47:15;19.97;;;12.57;;
24617;SDS011;12762;51.730;5.356;2024-03-08T11:49:42;23.90;;;13.40;;
24617;SDS011;12762;51.730;5.356;2024-03-08T11:52:11;26.70;;;13.67;;
24617;SDS011;12762;51.730;5.356;2024-03-08T11:54:48;22.33;;;13.27;;
24617;SDS011;12762;51.730;5.356;2024-03-08T11:57:23;20.93;;;13.63;;
24617;SDS011;12762;51.730;5.356;2024-03-08T11:59:51;21.20;;;13.17;;
24617;SDS011;12762;51.730;5.356;2024-03-08T12:02:25;23.07;;;14.33;;
24617;SDS011;12762;51.730;5.356;2024-03-08T12:04:57;23.33;;;14.40;;
24617;SDS011;12762;51.730;5.356;2024-03-08T12:07:26;23.00;;;14.77;;
24617;SDS011;12762;51.730;5.356;2024-03-08T12:12:48;21.67;;;13.83;;
24617;SDS011;12762;51.730;5.356;2024-03-08T12:15:18;25.03;;;13.57;;
24617;SDS011;12762;51.730;5.356;2024-03-08T12:17:50;21.70;;;13.23;;
24617;SDS011;12762;51.730;5.356;2024-03-08T12:20:23;21.07;;;12.93;;
24617;SDS011;12762;51.730;5.356;2024-03-08T12:22:54;22.33;;;13.77;;
24617;SDS011;12762;51.730;5.356;2024-03-08T12:25:26;24.00;;;13.73;;
24617;SDS011;12762;51.730;5.356;2024-03-08T12:27:56;23.43;;;13.90;;
24617;SDS011;12762;51.730;5.356;2024-03-08T12:30:24;20.13;;;13.13;;
24617;SDS011;12762;51.730;5.356;2024-03-08T12:32:58;21.87;;;13.90;;
24617;SDS011;12762;51.730;5.356;2024-03-08T12:35:29;27.43;;;12.80;;
24617;SDS011;12762;51.730;5.356;2024-03-08T12:37:58;22.43;;;12.87;;
24617;SDS011;12762;51.730;5.356;2024-03-08T12:40:26;22.63;;;13.27;;
24617;SDS011;12762;51.730;5.356;2024-03-08T12:43:08;20.70;;;12.70;;
24617;SDS011;12762;51.730;5.356;2024-03-08T12:45:35;21.40;;;13.80;;
24617;SDS011;12762;51.730;5.356;2024-03-08T12:48:02;22.13;;;13.07;;
24617;SDS011;12762;51.730;5.356;2024-03-08T12:50:40;21.10;;;13.23;;
24617;SDS011;12762;51.730;5.356;2024-03-08T12:53:10;22.40;;;12.53;;
24617;SDS011;12762;51.730;5.356;2024-03-08T12:55:37;25.50;;;13.27;;
24617;SDS011;12762;51.730;5.356;2024-03-08T12:58:04;20.87;;;12.60;;
24617;SDS011;12762;51.730;5.356;2024-03-08T13:00:34;22.23;;;13.30;;
24617;SDS011;12762;51.730;5.356;2024-03-08T13:03:09;21.63;;;13.47;;
24617;SDS011;12762;51.730;5.356;2024-03-08T13:05:37;20.90;;;13.93;;
24617;SDS011;12762;51.730;5.356;2024-03-08T13:08:06;22.10;;;13.60;;
24617;SDS011;12762;51.730;5.356;2024-03-08T13:10:42;20.80;;;14.33;;
24617;SDS011;12762;51.730;5.356;2024-03-08T13:13:10;22.03;;;13.83;;
24617;SDS011;12762;51.730;5.356;2024-03-08T13:15:44;23.40;;;13.73;;
24617;SDS011;12762;51.730;5.356;2024-03-08T13:18:11;26.60;;;14.33;;
24617;SDS011;12762;51.730;5.356;2024-03-08T13:20:38;22.53;;;13.77;;
24617;SDS011;12762;51.730;5.356;2024-03-08T13:23:12;21.93;;;12.80;;
24617;SDS011;12762;51.730;5.356;2024-03-08T13:25:39;22.37;;;13.93;;
24617;SDS011;12762;51.730;5.356;2024-03-08T13:28:07;24.27;;;14.60;;
24617;SDS011;12762;51.730;5.356;2024-03-08T13:30:37;21.03;;;13.30;;
24617;SDS011;12762;51.730;5.356;2024-03-08T13:33:07;21.80;;;13.63;;
24617;SDS011;12762;51.730;5.356;2024-03-08T13:35:38;23.97;;;13.70;;
24617;SDS011;12762;51.730;5.356;2024-03-08T13:38:06;22.80;;;13.77;;
24617;SDS011;12762;51.730;5.356;2024-03-08T13:40:35;22.13;;;13.87;;
24617;SDS011;12762;51.730;5.356;2024-03-08T13:43:02;21.27;;;13.53;;
24617;SDS011;12762;51.730;5.356;2024-03-08T13:45:29;20.77;;;13.50;;
24617;SDS011;12762;51.730;5.356;2024-03-08T13:47:56;21.80;;;13.80;;
24617;SDS011;12762;51.730;5.356;2024-03-08T13:50:23;21.87;;;13.57;;
24617;SDS011;12762;51.730;5.356;2024-03-08T13:52:52;21.83;;;13.30;;
24617;SDS011;12762;51.730;5.356;2024-03-08T13:55:22;24.27;;;13.60;;
24617;SDS011;12762;51.730;5.356;2024-03-08T13:57:49;21.70;;;13.43;;
24617;SDS011;12762;51.730;5.356;2024-03-08T14:00:19;22.63;;;13.60;;
24617;SDS011;12762;51.730;5.356;2024-03-08T14:09:39;21.90;;;14.17;;
24617;SDS011;12762;51.730;5.356;2024-03-08T14:12:39;24.33;;;13.13;;
24617;SDS011;12762;51.730;5.356;2024-03-08T14:15:05;20.07;;;13.53;;
24617;SDS011;12762;51.730;5.356;2024-03-08T14:17:37;23.70;;;14.20;;
24617;SDS011;12762;51.730;5.356;2024-03-08T14:20:04;23.20;;;13.33;;
24617;SDS011;12762;51.730;5.356;2024-03-08T14:22:31;23.50;;;13.90;;
24617;SDS011;12762;51.730;5.356;2024-03-08T14:24:58;20.93;;;13.93;;
24617;SDS011;12762;51.730;5.356;2024-03-08T14:27:28;23.13;;;14.43;;
24617;SDS011;12762;51.730;5.356;2024-03-08T14:29:54;21.73;;;13.93;;
24617;SDS011;12762;51.730;5.356;2024-03-08T14:32:23;22.60;;;14.27;;
24617;SDS011;12762;51.730;5.356;2024-03-08T14:34:49;23.90;;;14.23;;
24617;SDS011;12762;51.730;5.356;2024-03-08T14:37:16;21.27;;;13.60;;
24617;SDS011;12762;51.730;5.356;2024-03-08T14:39:47;21.43;;;14.17;;
24617;SDS011;12762;51.730;5.356;2024-03-08T14:42:16;22.03;;;14.13;;
24617;SDS011;12762;51.730;5.356;2024-03-08T14:44:43;22.87;;;14.40;;
24617;SDS011;12762;51.730;5.356;2024-03-08T14:47:14;22.53;;;14.30;;